sensor_id;sensor_type;location;lat;lon;timestamp;P1;durP1;ratioP1;P2;durP2;ratioP2
18286;SDS011;9269;50.838;12.094;2022-08-03T00:02:18;88.80;;;80.30;;
18286;SDS011;9269;50.838;12.094;2022-08-03T00:04:46;76.60;;;69.30;;
18286;SDS011;9269;50.838;12.094;2022-08-03T00:07:15;86.07;;;78.27;;
18286;SDS011;9269;50.838;12.094;2022-08-03T00:09:45;92.03;;;83.70;;
18286;SDS011;9269;50.838;12.094;2022-08-03T00:12:14;86.57;;;78.67;;
18286;SDS011;9269;50.838;12.094;2022-08-03T00:14:43;81.03;;;73.77;;
18286;SDS011;9269;50.838;12.094;2022-08-03T00:17:12;81.50;;;73.63;;
18286;SDS011;9269;50.838;12.094;2022-08-03T00:19:40;74.53;;;67.33;;
18286;SDS011;9269;50.838;12.094;2022-08-03T00:22:08;66.03;;;59.83;;
18286;SDS011;9269;50.838;12.094;2022-08-03T00:24:37;59.90;;;54.40;;
18286;SDS011;9269;50.838;12.094;2022-08-03T00:27:06;60.53;;;54.93;;
18286;SDS011;9269;50.838;12.094;2022-08-03T00:29:35;55.47;;;50.27;;
18286;SDS011;9269;50.838;12.094;2022-08-03T00:32:23;77.43;;;70.37;;
18286;SDS011;9269;50.838;12.094;2022-08-03T00:34:52;64.27;;;58.43;;
18286;SDS011;9269;50.838;12.094;2022-08-03T00:37:24;67.37;;;61.17;;
18286;SDS011;9269;50.838;12.094;2022-08-03T00:40:09;66.13;;;60.20;;
18286;SDS011;9269;50.838;12.094;2022-08-03T00:42:50;64.50;;;58.47;;
18286;SDS011;9269;50.838;12.094;2022-08-03T00:45:20;50.00;;;45.37;;
18286;SDS011;9269;50.838;12.094;2022-08-03T00:47:50;42.87;;;38.87;;
18286;SDS011;9269;50.838;12.094;2022-08-03T00:50:20;49.13;;;44.43;;
18286;SDS011;9269;50.838;12.094;2022-08-03T00:52:50;54.23;;;49.27;;
18286;SDS011;9269;50.838;12.094;2022-08-03T00:55:20;61.57;;;55.63;;
18286;SDS011;9269;50.838;12.094;2022-08-03T00:57:50;55.27;;;49.97;;
18286;SDS011;9269;50.838;12.094;2022-08-03T01:00:20;56.17;;;50.73;;
18286;SDS011;9269;50.838;12.094;2022-08-03T01:02:50;53.10;;;48.00;;
18286;SDS011;9269;50.838;12.094;2022-08-03T01:05:19;43.70;;;39.43;;
18286;SDS011;9269;50.838;12.094;2022-08-03T01:08:04;36.93;;;33.33;;
18286;SDS011;9269;50.838;12.094;2022-08-03T01:10:40;27.23;;;24.53;;
18286;SDS011;9269;50.838;12.094;2022-08-03T01:13:19;23.20;;;20.70;;
18286;SDS011;9269;50.838;12.094;2022-08-03T01:16:14;19.47;;;17.57;;
18286;SDS011;9269;50.838;12.094;2022-08-03T01:19:07;16.80;;;15.07;;
18286;SDS011;9269;50.838;12.094;2022-08-03T01:21:53;16.10;;;14.40;;
18286;SDS011;9269;50.838;12.094;2022-08-03T01:24:31;15.03;;;12.20;;
18286;SDS011;9269;50.838;12.094;2022-08-03T01:27:08;12.43;;;10.87;;
18286;SDS011;9269;50.838;12.094;2022-08-03T01:29:44;14.70;;;11.60;;
18286;SDS011;9269;50.838;12.094;2022-08-03T01:32:20;13.37;;;11.97;;
18286;SDS011;9269;50.838;12.094;2022-08-03T01:35:05;16.33;;;13.60;;
18286;SDS011;9269;50.838;12.094;2022-08-03T01:37:37;16.57;;;13.70;;
18286;SDS011;9269;50.838;12.094;2022-08-03T01:40:08;14.30;;;12.80;;
18286;SDS011;9269;50.838;12.094;2022-08-03T01:42:39;18.27;;;15.00;;
18286;SDS011;9269;50.838;12.094;2022-08-03T01:45:11;18.37;;;15.10;;
18286;SDS011;9269;50.838;12.094;2022-08-03T01:47:44;15.83;;;13.53;;
18286;SDS011;9269;50.838;12.094;2022-08-03T01:50:14;15.03;;;12.83;;
18286;SDS011;9269;50.838;12.094;2022-08-03T01:52:43;14.10;;;10.83;;
18286;SDS011;9269;50.838;12.094;2022-08-03T01:55:15;13.60;;;11.17;;
18286;SDS011;9269;50.838;12.094;2022-08-03T01:57:45;17.73;;;12.57;;
18286;SDS011;9269;50.838;12.094;2022-08-03T02:00:33;18.30;;;14.13;;
18286;SDS011;9269;50.838;12.094;2022-08-03T02:03:04;17.80;;;12.70;;
18286;SDS011;9269;50.838;12.094;2022-08-03T02:05:33;24.37;;;13.47;;
18286;SDS011;9269;50.838;12.094;2022-08-03T02:08:03;34.27;;;18.23;;
18286;SDS011;9269;50.838;12.094;2022-08-03T02:10:34;24.10;;;16.07;;
18286;SDS011;9269;50.838;12.094;2022-08-03T02:13:04;22.40;;;14.10;;
18286;SDS011;9269;50.838;12.094;2022-08-03T02:15:36;18.67;;;12.13;;
18286;SDS011;9269;50.838;12.094;2022-08-03T02:18:06;16.03;;;11.07;;
18286;SDS011;9269;50.838;12.094;2022-08-03T02:20:37;12.50;;;9.90;;
18286;SDS011;9269;50.838;12.094;2022-08-03T02:23:07;10.63;;;8.47;;
18286;SDS011;9269;50.838;12.094;2022-08-03T02:25:37;9.03;;;8.13;;
18286;SDS011;9269;50.838;12.094;2022-08-03T02:28:12;8.27;;;7.33;;
18286;SDS011;9269;50.838;12.094;2022-08-03T02:30:49;7.80;;;6.67;;
18286;SDS011;9269;50.838;12.094;2022-08-03T02:36:05;7.77;;;6.27;;
18286;SDS011;9269;50.838;12.094;2022-08-03T02:38:35;6.47;;;5.70;;
18286;SDS011;9269;50.838;12.094;2022-08-03T02:41:07;7.23;;;6.10;;
18286;SDS011;9269;50.838;12.094;2022-08-03T02:43:42;6.77;;;6.00;;
18286;SDS011;9269;50.838;12.094;2022-08-03T02:46:35;13.43;;;7.50;;
18286;SDS011;9269;50.838;12.094;2022-08-03T02:49:06;9.73;;;7.10;;
18286;SDS011;9269;50.838;12.094;2022-08-03T02:51:55;12.07;;;8.67;;
18286;SDS011;9269;50.838;12.094;2022-08-03T02:54:25;9.73;;;7.73;;
18286;SDS011;9269;50.838;12.094;2022-08-03T02:56:56;10.03;;;7.63;;
18286;SDS011;9269;50.838;12.094;2022-08-03T02:59:26;12.80;;;8.10;;
18286;SDS011;9269;50.838;12.094;2022-08-03T03:01:58;9.03;;;7.33;;
18286;SDS011;9269;50.838;12.094;2022-08-03T03:04:28;11.80;;;7.77;;
18286;SDS011;9269;50.838;12.094;2022-08-03T03:06:59;10.90;;;7.40;;
18286;SDS011;9269;50.838;12.094;2022-08-03T03:09:30;10.23;;;7.57;;
18286;SDS011;9269;50.838;12.094;2022-08-03T03:12:09;14.37;;;8.47;;
18286;SDS011;9269;50.838;12.094;2022-08-03T03:14:40;11.17;;;8.20;;
18286;SDS011;9269;50.838;12.094;2022-08-03T03:17:10;12.27;;;8.87;;
18286;SDS011;9269;50.838;12.094;2022-08-03T03:19:39;11.17;;;8.67;;
18286;SDS011;9269;50.838;12.094;2022-08-03T03:22:11;11.10;;;7.60;;
18286;SDS011;9269;50.838;12.094;2022-08-03T03:24:41;9.73;;;7.13;;
18286;SDS011;9269;50.838;12.094;2022-08-03T03:27:12;8.07;;;6.70;;
18286;SDS011;9269;50.838;12.094;2022-08-03T03:29:43;7.77;;;6.97;;
18286;SDS011;9269;50.838;12.094;2022-08-03T03:32:13;7.03;;;6.13;;
18286;SDS011;9269;50.838;12.094;2022-08-03T03:34:42;8.00;;;6.23;;
18286;SDS011;9269;50.838;12.094;2022-08-03T03:37:11;9.27;;;6.90;;
18286;SDS011;9269;50.838;12.094;2022-08-03T03:39:39;9.90;;;6.73;;
18286;SDS011;9269;50.838;12.094;2022-08-03T03:42:08;8.07;;;7.33;;
18286;SDS011;9269;50.838;12.094;2022-08-03T03:44:36;7.70;;;7.00;;
18286;SDS011;9269;50.838;12.094;2022-08-03T03:47:05;8.17;;;6.73;;
18286;SDS011;9269;50.838;12.094;2022-08-03T03:49:35;7.50;;;6.37;;
18286;SDS011;9269;50.838;12.094;2022-08-03T03:52:03;8.67;;;6.70;;
18286;SDS011;9269;50.838;12.094;2022-08-03T03:54:39;8.27;;;6.63;;
18286;SDS011;9269;50.838;12.094;2022-08-03T03:57:08;8.63;;;7.70;;
18286;SDS011;9269;50.838;12.094;2022-08-03T03:59:39;7.53;;;5.93;;
18286;SDS011;9269;50.838;12.094;2022-08-03T04:02:09;7.27;;;6.47;;
18286;SDS011;9269;50.838;12.094;2022-08-03T04:04:39;7.33;;;6.50;;
18286;SDS011;9269;50.838;12.094;2022-08-03T04:07:26;7.10;;;6.40;;
18286;SDS011;9269;50.838;12.094;2022-08-03T04:10:19;6.87;;;5.87;;
18286;SDS011;9269;50.838;12.094;2022-08-03T04:13:08;6.90;;;5.83;;
18286;SDS011;9269;50.838;12.094;2022-08-03T04:15:38;8.03;;;5.70;;
18286;SDS011;9269;50.838;12.094;2022-08-03T04:18:08;6.67;;;6.07;;
18286;SDS011;9269;50.838;12.094;2022-08-03T04:20:43;6.90;;;6.20;;
18286;SDS011;9269;50.838;12.094;2022-08-03T04:23:14;7.33;;;6.53;;
18286;SDS011;9269;50.838;12.094;2022-08-03T04:25:44;6.67;;;6.10;;
18286;SDS011;9269;50.838;12.094;2022-08-03T04:28:15;6.67;;;6.00;;
18286;SDS011;9269;50.838;12.094;2022-08-03T04:30:57;8.07;;;7.03;;
18286;SDS011;9269;50.838;12.094;2022-08-03T04:33:28;6.70;;;6.07;;
18286;SDS011;9269;50.838;12.094;2022-08-03T04:36:03;8.13;;;7.23;;
18286;SDS011;9269;50.838;12.094;2022-08-03T04:38:35;9.17;;;6.97;;
18286;SDS011;9269;50.838;12.094;2022-08-03T04:41:10;11.40;;;7.60;;
18286;SDS011;9269;50.838;12.094;2022-08-03T04:43:41;12.03;;;8.07;;
18286;SDS011;9269;50.838;12.094;2022-08-03T04:46:11;11.40;;;7.40;;
18286;SDS011;9269;50.838;12.094;2022-08-03T04:48:40;9.23;;;6.73;;
18286;SDS011;9269;50.838;12.094;2022-08-03T04:51:11;9.83;;;7.27;;
18286;SDS011;9269;50.838;12.094;2022-08-03T04:53:41;8.73;;;6.53;;
18286;SDS011;9269;50.838;12.094;2022-08-03T04:56:09;13.27;;;8.33;;
18286;SDS011;9269;50.838;12.094;2022-08-03T04:58:38;11.97;;;7.83;;
18286;SDS011;9269;50.838;12.094;2022-08-03T05:01:07;14.83;;;7.20;;
18286;SDS011;9269;50.838;12.094;2022-08-03T05:03:35;12.83;;;7.53;;
18286;SDS011;9269;50.838;12.094;2022-08-03T05:06:04;11.30;;;7.80;;
18286;SDS011;9269;50.838;12.094;2022-08-03T05:08:38;8.70;;;7.07;;
18286;SDS011;9269;50.838;12.094;2022-08-03T05:11:13;10.40;;;6.90;;
18286;SDS011;9269;50.838;12.094;2022-08-03T05:13:41;11.20;;;7.00;;
18286;SDS011;9269;50.838;12.094;2022-08-03T05:16:10;9.10;;;6.73;;
18286;SDS011;9269;50.838;12.094;2022-08-03T05:18:40;10.70;;;7.17;;
18286;SDS011;9269;50.838;12.094;2022-08-03T05:21:09;10.93;;;7.00;;
18286;SDS011;9269;50.838;12.094;2022-08-03T05:23:41;11.97;;;7.07;;
18286;SDS011;9269;50.838;12.094;2022-08-03T05:26:10;9.93;;;7.07;;
18286;SDS011;9269;50.838;12.094;2022-08-03T05:28:39;7.87;;;7.07;;
18286;SDS011;9269;50.838;12.094;2022-08-03T05:31:17;10.97;;;9.50;;
18286;SDS011;9269;50.838;12.094;2022-08-03T05:33:45;11.40;;;8.00;;
18286;SDS011;9269;50.838;12.094;2022-08-03T05:36:14;12.97;;;9.00;;
18286;SDS011;9269;50.838;12.094;2022-08-03T05:38:44;9.43;;;8.17;;
18286;SDS011;9269;50.838;12.094;2022-08-03T05:41:12;7.60;;;6.77;;
18286;SDS011;9269;50.838;12.094;2022-08-03T05:43:49;7.53;;;6.83;;
18286;SDS011;9269;50.838;12.094;2022-08-03T05:46:19;7.73;;;7.00;;
18286;SDS011;9269;50.838;12.094;2022-08-03T05:48:48;7.60;;;6.77;;
18286;SDS011;9269;50.838;12.094;2022-08-03T05:51:16;7.30;;;6.60;;
18286;SDS011;9269;50.838;12.094;2022-08-03T05:53:46;6.67;;;5.73;;
18286;SDS011;9269;50.838;12.094;2022-08-03T05:56:14;6.57;;;5.63;;
18286;SDS011;9269;50.838;12.094;2022-08-03T05:58:43;5.77;;;5.23;;
18286;SDS011;9269;50.838;12.094;2022-08-03T06:01:13;6.23;;;5.40;;
18286;SDS011;9269;50.838;12.094;2022-08-03T06:03:41;6.13;;;5.53;;
18286;SDS011;9269;50.838;12.094;2022-08-03T06:06:10;6.03;;;5.43;;
18286;SDS011;9269;50.838;12.094;2022-08-03T06:08:39;11.53;;;7.03;;
18286;SDS011;9269;50.838;12.094;2022-08-03T06:11:09;7.83;;;6.17;;
18286;SDS011;9269;50.838;12.094;2022-08-03T06:13:37;10.23;;;6.97;;
18286;SDS011;9269;50.838;12.094;2022-08-03T06:16:06;10.77;;;7.13;;
18286;SDS011;9269;50.838;12.094;2022-08-03T06:18:35;6.77;;;6.17;;
18286;SDS011;9269;50.838;12.094;2022-08-03T06:21:04;9.97;;;6.27;;
18286;SDS011;9269;50.838;12.094;2022-08-03T06:23:40;8.63;;;5.43;;
18286;SDS011;9269;50.838;12.094;2022-08-03T06:26:23;7.57;;;5.70;;
18286;SDS011;9269;50.838;12.094;2022-08-03T06:28:51;8.40;;;6.10;;
18286;SDS011;9269;50.838;12.094;2022-08-03T06:31:21;7.23;;;6.17;;
18286;SDS011;9269;50.838;12.094;2022-08-03T06:34:00;5.93;;;5.13;;
18286;SDS011;9269;50.838;12.094;2022-08-03T06:36:49;8.60;;;5.40;;
18286;SDS011;9269;50.838;12.094;2022-08-03T06:39:19;10.30;;;4.77;;
18286;SDS011;9269;50.838;12.094;2022-08-03T06:41:51;4.90;;;4.40;;
18286;SDS011;9269;50.838;12.094;2022-08-03T06:44:20;5.40;;;4.73;;
18286;SDS011;9269;50.838;12.094;2022-08-03T06:46:49;7.70;;;4.17;;
18286;SDS011;9269;50.838;12.094;2022-08-03T06:49:18;6.23;;;4.73;;
18286;SDS011;9269;50.838;12.094;2022-08-03T06:51:47;4.83;;;4.33;;
18286;SDS011;9269;50.838;12.094;2022-08-03T06:54:32;6.33;;;4.87;;
18286;SDS011;9269;50.838;12.094;2022-08-03T06:57:03;5.13;;;4.53;;
18286;SDS011;9269;50.838;12.094;2022-08-03T06:59:34;4.43;;;4.13;;
18286;SDS011;9269;50.838;12.094;2022-08-03T07:02:22;5.93;;;4.53;;
18286;SDS011;9269;50.838;12.094;2022-08-03T07:04:54;4.30;;;3.90;;
18286;SDS011;9269;50.838;12.094;2022-08-03T07:07:23;6.33;;;5.13;;
18286;SDS011;9269;50.838;12.094;2022-08-03T07:09:51;5.23;;;4.73;;
18286;SDS011;9269;50.838;12.094;2022-08-03T07:12:26;4.90;;;4.50;;
18286;SDS011;9269;50.838;12.094;2022-08-03T07:14:55;6.27;;;4.90;;
18286;SDS011;9269;50.838;12.094;2022-08-03T07:17:28;5.43;;;4.40;;
18286;SDS011;9269;50.838;12.094;2022-08-03T07:19:59;5.53;;;4.90;;
18286;SDS011;9269;50.838;12.094;2022-08-03T07:22:28;5.57;;;5.07;;
18286;SDS011;9269;50.838;12.094;2022-08-03T07:24:56;6.20;;;5.03;;
18286;SDS011;9269;50.838;12.094;2022-08-03T07:27:26;4.83;;;4.43;;
18286;SDS011;9269;50.838;12.094;2022-08-03T07:29:56;5.47;;;5.00;;
18286;SDS011;9269;50.838;12.094;2022-08-03T07:32:25;5.67;;;5.17;;
18286;SDS011;9269;50.838;12.094;2022-08-03T07:34:54;6.33;;;5.20;;
18286;SDS011;9269;50.838;12.094;2022-08-03T07:37:27;5.03;;;4.63;;
18286;SDS011;9269;50.838;12.094;2022-08-03T07:39:56;6.93;;;5.73;;
18286;SDS011;9269;50.838;12.094;2022-08-03T07:42:26;5.47;;;5.03;;
18286;SDS011;9269;50.838;12.094;2022-08-03T07:44:55;6.73;;;4.10;;
18286;SDS011;9269;50.838;12.094;2022-08-03T07:47:24;4.60;;;4.20;;
18286;SDS011;9269;50.838;12.094;2022-08-03T07:50:00;5.47;;;4.97;;
18286;SDS011;9269;50.838;12.094;2022-08-03T07:52:29;7.53;;;5.00;;
18286;SDS011;9269;50.838;12.094;2022-08-03T07:55:16;4.83;;;4.43;;
18286;SDS011;9269;50.838;12.094;2022-08-03T07:57:52;5.80;;;4.40;;
18286;SDS011;9269;50.838;12.094;2022-08-03T08:00:27;6.43;;;4.87;;
18286;SDS011;9269;50.838;12.094;2022-08-03T08:02:55;5.20;;;4.70;;
18286;SDS011;9269;50.838;12.094;2022-08-03T08:05:24;4.53;;;4.10;;
18286;SDS011;9269;50.838;12.094;2022-08-03T08:07:52;4.30;;;3.93;;
18286;SDS011;9269;50.838;12.094;2022-08-03T08:10:21;3.83;;;3.37;;
18286;SDS011;9269;50.838;12.094;2022-08-03T08:12:50;3.17;;;2.87;;
18286;SDS011;9269;50.838;12.094;2022-08-03T08:15:19;3.07;;;2.87;;
18286;SDS011;9269;50.838;12.094;2022-08-03T08:17:47;3.10;;;2.90;;
18286;SDS011;9269;50.838;12.094;2022-08-03T08:20:18;4.60;;;2.57;;
18286;SDS011;9269;50.838;12.094;2022-08-03T08:22:56;3.10;;;2.80;;
18286;SDS011;9269;50.838;12.094;2022-08-03T08:25:27;3.57;;;2.53;;
18286;SDS011;9269;50.838;12.094;2022-08-03T08:27:59;5.43;;;3.03;;
18286;SDS011;9269;50.838;12.094;2022-08-03T08:30:49;3.53;;;2.73;;
18286;SDS011;9269;50.838;12.094;2022-08-03T08:33:17;3.50;;;2.77;;
18286;SDS011;9269;50.838;12.094;2022-08-03T08:35:49;4.77;;;3.60;;
18286;SDS011;9269;50.838;12.094;2022-08-03T08:38:19;3.00;;;2.70;;
18286;SDS011;9269;50.838;12.094;2022-08-03T08:40:48;4.87;;;2.73;;
18286;SDS011;9269;50.838;12.094;2022-08-03T08:43:18;3.57;;;2.97;;
18286;SDS011;9269;50.838;12.094;2022-08-03T08:45:47;2.63;;;2.43;;
18286;SDS011;9269;50.838;12.094;2022-08-03T08:48:17;2.87;;;2.37;;
18286;SDS011;9269;50.838;12.094;2022-08-03T08:50:51;3.70;;;2.77;;
18286;SDS011;9269;50.838;12.094;2022-08-03T08:53:20;2.70;;;2.50;;
18286;SDS011;9269;50.838;12.094;2022-08-03T08:55:54;3.03;;;2.50;;
18286;SDS011;9269;50.838;12.094;2022-08-03T08:58:29;2.60;;;2.40;;
18286;SDS011;9269;50.838;12.094;2022-08-03T09:01:02;3.70;;;2.40;;
18286;SDS011;9269;50.838;12.094;2022-08-03T09:03:31;3.43;;;2.20;;
18286;SDS011;9269;50.838;12.094;2022-08-03T09:06:00;2.60;;;2.40;;
18286;SDS011;9269;50.838;12.094;2022-08-03T09:08:30;3.03;;;2.50;;
18286;SDS011;9269;50.838;12.094;2022-08-03T09:10:59;2.60;;;2.40;;
18286;SDS011;9269;50.838;12.094;2022-08-03T09:13:28;2.40;;;2.20;;
18286;SDS011;9269;50.838;12.094;2022-08-03T09:16:10;2.70;;;2.50;;
18286;SDS011;9269;50.838;12.094;2022-08-03T09:18:40;2.17;;;2.00;;
18286;SDS011;9269;50.838;12.094;2022-08-03T09:21:12;2.43;;;2.27;;
18286;SDS011;9269;50.838;12.094;2022-08-03T09:24:02;2.00;;;1.83;;
18286;SDS011;9269;50.838;12.094;2022-08-03T09:26:48;3.03;;;2.03;;
18286;SDS011;9269;50.838;12.094;2022-08-03T09:29:20;2.97;;;2.20;;
18286;SDS011;9269;50.838;12.094;2022-08-03T09:31:58;3.00;;;2.20;;
18286;SDS011;9269;50.838;12.094;2022-08-03T09:34:28;2.20;;;2.10;;
18286;SDS011;9269;50.838;12.094;2022-08-03T09:36:57;2.67;;;2.53;;
18286;SDS011;9269;50.838;12.094;2022-08-03T09:39:26;3.70;;;2.13;;
18286;SDS011;9269;50.838;12.094;2022-08-03T09:42:09;3.03;;;2.10;;
18286;SDS011;9269;50.838;12.094;2022-08-03T09:44:42;2.60;;;2.40;;
18286;SDS011;9269;50.838;12.094;2022-08-03T09:47:13;3.80;;;2.20;;
18286;SDS011;9269;50.838;12.094;2022-08-03T09:49:57;2.47;;;2.27;;
18286;SDS011;9269;50.838;12.094;2022-08-03T09:52:31;2.30;;;2.10;;
18286;SDS011;9269;50.838;12.094;2022-08-03T09:55:16;2.77;;;2.57;;
18286;SDS011;9269;50.838;12.094;2022-08-03T09:58:06;2.40;;;2.30;;
18286;SDS011;9269;50.838;12.094;2022-08-03T10:00:51;2.40;;;2.20;;
18286;SDS011;9269;50.838;12.094;2022-08-03T10:03:21;2.10;;;2.00;;
18286;SDS011;9269;50.838;12.094;2022-08-03T10:05:51;3.57;;;2.40;;
18286;SDS011;9269;50.838;12.094;2022-08-03T10:08:25;2.63;;;2.40;;
18286;SDS011;9269;50.838;12.094;2022-08-03T10:10:54;2.40;;;2.20;;
18286;SDS011;9269;50.838;12.094;2022-08-03T10:13:24;2.73;;;2.50;;
18286;SDS011;9269;50.838;12.094;2022-08-03T10:15:54;2.50;;;2.30;;
18286;SDS011;9269;50.838;12.094;2022-08-03T10:18:42;2.30;;;2.20;;
18286;SDS011;9269;50.838;12.094;2022-08-03T10:21:11;2.70;;;2.50;;
18286;SDS011;9269;50.838;12.094;2022-08-03T10:23:43;2.50;;;2.30;;
18286;SDS011;9269;50.838;12.094;2022-08-03T10:26:15;2.93;;;2.60;;
18286;SDS011;9269;50.838;12.094;2022-08-03T10:28:48;2.30;;;2.10;;
18286;SDS011;9269;50.838;12.094;2022-08-03T10:31:22;2.73;;;2.20;;
18286;SDS011;9269;50.838;12.094;2022-08-03T10:33:51;2.43;;;2.20;;
18286;SDS011;9269;50.838;12.094;2022-08-03T10:36:24;2.53;;;2.30;;
18286;SDS011;9269;50.838;12.094;2022-08-03T10:38:58;2.30;;;2.20;;
18286;SDS011;9269;50.838;12.094;2022-08-03T10:41:30;2.30;;;2.20;;
18286;SDS011;9269;50.838;12.094;2022-08-03T10:44:02;2.53;;;2.33;;
18286;SDS011;9269;50.838;12.094;2022-08-03T10:46:36;2.20;;;2.00;;
18286;SDS011;9269;50.838;12.094;2022-08-03T10:49:11;2.53;;;2.27;;
18286;SDS011;9269;50.838;12.094;2022-08-03T10:51:41;3.17;;;2.10;;
18286;SDS011;9269;50.838;12.094;2022-08-03T10:57:41;2.23;;;2.13;;
18286;SDS011;9269;50.838;12.094;2022-08-03T11:00:18;5.50;;;2.30;;
18286;SDS011;9269;50.838;12.094;2022-08-03T11:03:05;2.60;;;2.40;;
18286;SDS011;9269;50.838;12.094;2022-08-03T11:05:37;2.50;;;2.30;;
18286;SDS011;9269;50.838;12.094;2022-08-03T11:08:24;2.43;;;2.20;;
18286;SDS011;9269;50.838;12.094;2022-08-03T11:10:58;2.73;;;2.20;;
18286;SDS011;9269;50.838;12.094;2022-08-03T11:13:29;2.53;;;2.33;;
18286;SDS011;9269;50.838;12.094;2022-08-03T11:16:01;2.40;;;2.20;;
18286;SDS011;9269;50.838;12.094;2022-08-03T11:18:55;2.50;;;2.30;;
18286;SDS011;9269;50.838;12.094;2022-08-03T11:27:28;2.63;;;2.37;;
18286;SDS011;9269;50.838;12.094;2022-08-03T11:29:59;2.63;;;2.00;;
18286;SDS011;9269;50.838;12.094;2022-08-03T11:32:49;2.70;;;2.50;;
18286;SDS011;9269;50.838;12.094;2022-08-03T11:35:21;2.50;;;2.30;;
18286;SDS011;9269;50.838;12.094;2022-08-03T11:38:03;2.50;;;2.40;;
18286;SDS011;9269;50.838;12.094;2022-08-03T11:40:35;2.20;;;2.10;;
18286;SDS011;9269;50.838;12.094;2022-08-03T11:43:07;2.37;;;2.27;;
18286;SDS011;9269;50.838;12.094;2022-08-03T11:45:36;2.70;;;2.50;;
18286;SDS011;9269;50.838;12.094;2022-08-03T11:48:14;2.87;;;2.13;;
18286;SDS011;9269;50.838;12.094;2022-08-03T11:50:44;2.80;;;2.33;;
18286;SDS011;9269;50.838;12.094;2022-08-03T11:53:13;2.40;;;2.13;;
18286;SDS011;9269;50.838;12.094;2022-08-03T11:55:44;2.80;;;2.60;;
18286;SDS011;9269;50.838;12.094;2022-08-03T11:58:15;2.20;;;2.10;;
18286;SDS011;9269;50.838;12.094;2022-08-03T12:01:08;2.50;;;2.30;;
18286;SDS011;9269;50.838;12.094;2022-08-03T12:03:38;2.43;;;2.23;;
18286;SDS011;9269;50.838;12.094;2022-08-03T12:06:09;2.60;;;2.40;;
18286;SDS011;9269;50.838;12.094;2022-08-03T12:08:39;2.50;;;2.30;;
18286;SDS011;9269;50.838;12.094;2022-08-03T12:11:08;2.37;;;2.17;;
18286;SDS011;9269;50.838;12.094;2022-08-03T12:13:38;2.80;;;2.13;;
18286;SDS011;9269;50.838;12.094;2022-08-03T12:16:28;2.30;;;2.20;;
18286;SDS011;9269;50.838;12.094;2022-08-03T12:18:57;2.55;;;2.35;;
18286;SDS011;9269;50.838;12.094;2022-08-03T12:21:28;2.50;;;2.30;;
18286;SDS011;9269;50.838;12.094;2022-08-03T12:23:57;2.70;;;2.50;;
18286;SDS011;9269;50.838;12.094;2022-08-03T12:26:27;2.50;;;2.33;;
18286;SDS011;9269;50.838;12.094;2022-08-03T12:28:57;3.50;;;2.40;;
18286;SDS011;9269;50.838;12.094;2022-08-03T12:31:25;2.67;;;2.47;;
18286;SDS011;9269;50.838;12.094;2022-08-03T12:33:54;2.55;;;2.20;;
18286;SDS011;9269;50.838;12.094;2022-08-03T12:36:25;2.38;;;2.10;;
18286;SDS011;9269;50.838;12.094;2022-08-03T12:38:57;2.43;;;2.30;;
18286;SDS011;9269;50.838;12.094;2022-08-03T12:41:27;2.33;;;2.10;;
18286;SDS011;9269;50.838;12.094;2022-08-03T12:43:56;2.70;;;2.50;;
18286;SDS011;9269;50.838;12.094;2022-08-03T12:46:29;2.40;;;2.30;;
18286;SDS011;9269;50.838;12.094;2022-08-03T12:49:00;2.60;;;2.40;;
18286;SDS011;9269;50.838;12.094;2022-08-03T12:51:31;3.83;;;2.60;;
18286;SDS011;9269;50.838;12.094;2022-08-03T12:54:03;3.20;;;2.47;;
18286;SDS011;9269;50.838;12.094;2022-08-03T12:56:32;2.53;;;2.33;;
18286;SDS011;9269;50.838;12.094;2022-08-03T13:01:58;2.30;;;2.20;;
18286;SDS011;9269;50.838;12.094;2022-08-03T13:04:31;2.60;;;2.40;;
18286;SDS011;9269;50.838;12.094;2022-08-03T13:07:01;2.40;;;2.30;;
18286;SDS011;9269;50.838;12.094;2022-08-03T13:09:40;2.20;;;2.10;;
18286;SDS011;9269;50.838;12.094;2022-08-03T13:12:10;2.53;;;2.30;;
18286;SDS011;9269;50.838;12.094;2022-08-03T13:14:41;2.63;;;2.42;;
18286;SDS011;9269;50.838;12.094;2022-08-03T13:17:10;2.60;;;2.40;;
18286;SDS011;9269;50.838;12.094;2022-08-03T13:19:40;2.40;;;2.20;;
18286;SDS011;9269;50.838;12.094;2022-08-03T13:22:11;2.50;;;2.40;;
18286;SDS011;9269;50.838;12.094;2022-08-03T13:24:43;2.40;;;2.20;;
18286;SDS011;9269;50.838;12.094;2022-08-03T13:27:12;2.42;;;2.30;;
18286;SDS011;9269;50.838;12.094;2022-08-03T13:30:01;2.50;;;2.30;;
18286;SDS011;9269;50.838;12.094;2022-08-03T13:32:30;2.40;;;2.20;;
18286;SDS011;9269;50.838;12.094;2022-08-03T13:35:00;2.40;;;2.20;;
18286;SDS011;9269;50.838;12.094;2022-08-03T13:37:29;2.20;;;2.05;;
18286;SDS011;9269;50.838;12.094;2022-08-03T13:40:00;3.00;;;2.10;;
18286;SDS011;9269;50.838;12.094;2022-08-03T13:42:32;2.40;;;2.30;;
18286;SDS011;9269;50.838;12.094;2022-08-03T13:45:02;4.30;;;3.15;;
18286;SDS011;9269;50.838;12.094;2022-08-03T13:47:31;2.35;;;2.25;;
18286;SDS011;9269;50.838;12.094;2022-08-03T13:50:00;2.88;;;2.45;;
18286;SDS011;9269;50.838;12.094;2022-08-03T13:52:30;3.67;;;2.33;;
18286;SDS011;9269;50.838;12.094;2022-08-03T13:55:00;2.92;;;2.55;;
18286;SDS011;9269;50.838;12.094;2022-08-03T13:57:32;2.30;;;2.20;;
18286;SDS011;9269;50.838;12.094;2022-08-03T14:00:21;2.20;;;2.10;;
18286;SDS011;9269;50.838;12.094;2022-08-03T14:02:59;3.25;;;2.22;;
18286;SDS011;9269;50.838;12.094;2022-08-03T14:05:40;2.42;;;2.22;;
18286;SDS011;9269;50.838;12.094;2022-08-03T14:08:09;2.50;;;2.30;;
18286;SDS011;9269;50.838;12.094;2022-08-03T14:10:41;3.92;;;2.33;;
18286;SDS011;9269;50.838;12.094;2022-08-03T14:13:11;2.63;;;2.40;;
18286;SDS011;9269;50.838;12.094;2022-08-03T14:15:44;3.53;;;3.13;;
18286;SDS011;9269;50.838;12.094;2022-08-03T14:18:17;2.63;;;2.45;;
18286;SDS011;9269;50.838;12.094;2022-08-03T14:20:59;2.78;;;2.40;;
18286;SDS011;9269;50.838;12.094;2022-08-03T14:23:32;2.75;;;2.30;;
18286;SDS011;9269;50.838;12.094;2022-08-03T14:26:04;2.30;;;2.10;;
18286;SDS011;9269;50.838;12.094;2022-08-03T14:28:33;2.15;;;2.05;;
18286;SDS011;9269;50.838;12.094;2022-08-03T14:31:02;2.10;;;2.00;;
18286;SDS011;9269;50.838;12.094;2022-08-03T14:33:41;2.53;;;2.10;;
18286;SDS011;9269;50.838;12.094;2022-08-03T14:36:09;3.00;;;2.20;;
18286;SDS011;9269;50.838;12.094;2022-08-03T14:38:38;2.50;;;2.27;;
18286;SDS011;9269;50.838;12.094;2022-08-03T14:41:08;2.10;;;2.00;;
18286;SDS011;9269;50.838;12.094;2022-08-03T14:43:46;2.30;;;2.20;;
18286;SDS011;9269;50.838;12.094;2022-08-03T14:46:28;2.20;;;2.00;;
18286;SDS011;9269;50.838;12.094;2022-08-03T14:48:57;2.20;;;1.80;;
18286;SDS011;9269;50.838;12.094;2022-08-03T14:51:45;2.38;;;2.17;;
18286;SDS011;9269;50.838;12.094;2022-08-03T14:54:19;2.55;;;2.00;;
18286;SDS011;9269;50.838;12.094;2022-08-03T14:56:49;2.37;;;2.17;;
18286;SDS011;9269;50.838;12.094;2022-08-03T14:59:18;1.92;;;1.83;;
18286;SDS011;9269;50.838;12.094;2022-08-03T15:01:47;2.10;;;2.00;;
18286;SDS011;9269;50.838;12.094;2022-08-03T15:04:34;2.10;;;2.00;;
18286;SDS011;9269;50.838;12.094;2022-08-03T15:07:08;3.25;;;2.47;;
18286;SDS011;9269;50.838;12.094;2022-08-03T15:09:36;2.10;;;2.00;;
18286;SDS011;9269;50.838;12.094;2022-08-03T15:12:08;2.30;;;2.00;;
18286;SDS011;9269;50.838;12.094;2022-08-03T15:14:36;2.42;;;1.98;;
18286;SDS011;9269;50.838;12.094;2022-08-03T15:17:05;2.35;;;2.13;;
18286;SDS011;9269;50.838;12.094;2022-08-03T15:19:33;3.13;;;2.20;;
18286;SDS011;9269;50.838;12.094;2022-08-03T15:22:23;2.23;;;2.03;;
18286;SDS011;9269;50.838;12.094;2022-08-03T15:25:01;2.43;;;2.23;;
18286;SDS011;9269;50.838;12.094;2022-08-03T15:27:51;2.88;;;2.10;;
18286;SDS011;9269;50.838;12.094;2022-08-03T15:30:30;2.28;;;2.08;;
18286;SDS011;9269;50.838;12.094;2022-08-03T15:33:01;2.15;;;1.95;;